Time;durP1;ratioP1;P1;durP2;ratioP2;P2;SDS_P1;SDS_P2;PMS_P1;PMS_P2;Temp;Humidity;BMP_temperature;BMP_pressure;BME280_temperature;BME280_humidity;BME280_pressure;Samples;Min_cycle;Max_cycle;Signal;HPM_P1;HPM_P2
2021/07/14 00:01:55;;;;;;;22.27;12.00;;;;;;;16.41;85.41;101384.34;5051810;28;20465;-64
2021/07/14 00:04:21;;;;;;;18.90;11.00;;;;;;;16.41;85.60;101373.66;5052803;28;20033;-62
2021/07/14 00:06:46;;;;;;;24.48;11.80;;;;;;;16.38;85.35;101380.91;5052626;28;20025;-64
2021/07/14 00:09:12;;;;;;;18.77;11.35;;;;;;;16.43;85.20;101393.13;5051436;28;20027;-62
2021/07/14 00:11:40;;;;;;;21.08;11.32;;;;;;;16.45;85.50;101388.56;5051805;28;20351;-62
2021/07/14 00:22:18;;;;;;;20.52;11.43;;;;;;;16.50;85.20;101387.31;5051712;28;20071;-64
2021/07/14 00:24:44;;;;;;;20.08;10.63;;;;;;;16.49;85.65;101387.41;5051802;28;20481;-62
2021/07/14 00:27:10;;;;;;;20.58;11.80;;;;;;;16.49;85.44;101382.06;5066168;28;20510;-62
2021/07/14 00:29:40;;;;;;;23.38;11.80;;;;;;;16.50;85.63;101389.16;5071854;28;20488;-62
2021/07/14 00:32:06;;;;;;;21.08;10.98;;;;;;;16.53;85.75;101391.63;5071830;28;20457;-62
2021/07/14 00:34:33;;;;;;;22.30;11.48;;;;;;;16.51;85.41;101386.38;5071906;28;20085;-64
2021/07/14 00:36:59;;;;;;;24.63;12.45;;;;;;;16.51;85.52;101397.06;5070157;28;20035;-65
2021/07/14 00:39:24;;;;;;;23.35;11.90;;;;;;;16.48;85.70;101393.72;5071661;28;20029;-62
2021/07/14 00:41:49;;;;;;;24.05;12.27;;;;;;;16.53;85.49;101399.63;5073191;28;20027;-63
2021/07/14 00:44:15;;;;;;;22.60;11.55;;;;;;;16.50;86.15;101392.66;5075091;28;20028;-61
2021/07/14 00:46:41;;;;;;;25.23;12.82;;;;;;;16.48;85.78;101391.91;5074452;28;20024;-61
2021/07/14 00:49:07;;;;;;;28.02;13.30;;;;;;;16.44;86.65;101395.72;5055037;28;20110;-62
2021/07/14 00:51:33;;;;;;;22.52;11.68;;;;;;;16.45;85.99;101391.25;5055136;28;20021;-62
2021/07/14 00:53:59;;;;;;;27.40;13.00;;;;;;;16.43;86.35;101385.13;5055030;28;20025;-62
2021/07/14 00:56:26;;;;;;;28.90;12.95;;;;;;;16.46;86.38;101395.59;5054741;28;20055;-62
2021/07/14 00:58:54;;;;;;;28.48;13.00;;;;;;;16.43;86.59;101398.47;5056858;28;20075;-62
2021/07/14 01:01:20;;;;;;;22.55;12.23;;;;;;;16.45;86.38;101389.41;5054959;28;20116;-61
2021/07/14 01:03:48;;;;;;;27.67;13.18;;;;;;;16.47;86.19;101387.53;5054415;28;20056;-61
2021/07/14 01:06:21;;;;;;;35.53;15.52;;;;;;;16.47;86.54;101394.66;5054712;28;20083;-62
2021/07/14 01:08:57;;;;;;;31.38;14.73;;;;;;;16.47;86.85;101398.22;5056706;28;20021;-62
2021/07/14 01:11:25;;;;;;;33.28;14.77;;;;;;;16.46;86.72;101399.16;5063395;28;20090;-62
2021/07/14 01:13:59;;;;;;;36.45;18.25;;;;;;;16.44;86.93;101392.19;5074365;28;20082;-62
2021/07/14 01:16:31;;;;;;;42.58;20.17;;;;;;;16.40;87.39;101388.00;5074155;28;20059;-62
2021/07/14 01:19:15;;;;;;;41.90;19.48;;;;;;;16.37;87.33;101387.22;5071060;28;20036;-62
2021/07/14 01:21:45;;;;;;;36.00;19.63;;;;;;;16.37;87.90;101387.22;5074765;28;20024;-64
2021/07/14 01:24:40;;;;;;;38.60;20.63;;;;;;;16.37;87.68;101381.88;5074405;28;20060;-63
2021/07/14 01:27:13;;;;;;;39.08;19.88;;;;;;;16.40;87.42;101379.97;5056172;28;20396;-62
2021/07/14 01:29:43;;;;;;;39.20;19.70;;;;;;;16.41;87.64;101379.00;5070871;28;20498;-62
2021/07/14 01:32:10;;;;;;;40.55;19.88;;;;;;;16.43;87.20;101383.28;5074167;28;20028;-63
2021/07/14 01:34:38;;;;;;;45.58;20.85;;;;;;;16.41;87.81;101374.53;5074243;28;20056;-62
2021/07/14 01:37:05;;;;;;;42.45;19.33;;;;;;;16.38;87.63;101385.38;5073949;28;20496;-63
2021/07/14 01:39:31;;;;;;;42.00;19.88;;;;;;;16.41;87.50;101385.22;5072241;28;20104;-62
2021/07/14 01:42:00;;;;;;;43.83;20.30;;;;;;;16.39;88.22;101368.41;5072199;28;20131;-61
2021/07/14 01:44:27;;;;;;;40.60;20.08;;;;;;;16.37;87.83;101373.84;5055400;28;20025;-61
2021/07/14 01:46:57;;;;;;;42.88;19.13;;;;;;;16.38;87.94;101386.25;5054008;28;20548;-62
2021/07/14 01:49:25;;;;;;;46.22;19.60;;;;;;;16.38;88.13;101390.72;5055167;28;20036;-61
2021/07/14 01:51:59;;;;;;;44.10;19.70;;;;;;;16.35;88.33;101386.44;5053471;28;20497;-64
2021/07/14 01:54:26;;;;;;;35.80;19.05;;;;;;;16.39;87.87;101392.47;5067779;28;20083;-62
2021/07/14 01:56:53;;;;;;;45.03;19.77;;;;;;;16.38;87.63;101388.06;5073379;28;20032;-62
2021/07/14 01:59:20;;;;;;;42.95;18.98;;;;;;;16.37;87.89;101392.56;5073529;28;20059;-62
2021/07/14 02:01:46;;;;;;;41.20;18.45;;;;;;;16.37;87.71;101384.53;5071525;28;20024;-60
2021/07/14 02:04:31;;;;;;;42.97;18.55;;;;;;;16.43;88.09;101383.28;5070677;28;20029;-64
2021/07/14 02:07:03;;;;;;;40.38;16.67;;;;;;;16.45;87.31;101381.41;5073736;28;20025;-63
2021/07/14 02:09:28;;;;;;;39.90;16.92;;;;;;;16.46;87.47;101376.91;5073119;28;20044;-64
2021/07/14 02:11:56;;;;;;;35.45;16.10;;;;;;;16.48;86.77;101373.22;5071455;28;20152;-62
2021/07/14 02:14:33;;;;;;;33.78;15.48;;;;;;;16.49;86.99;101368.72;5071301;28;20055;-64
2021/07/14 02:17:03;;;;;;;31.25;15.50;;;;;;;16.48;87.07;101369.66;5073186;28;20024;-62
2021/07/14 02:19:31;;;;;;;34.50;16.20;;;;;;;16.49;87.04;101363.38;5073310;28;20033;-64
2021/07/14 02:21:56;;;;;;;33.97;14.75;;;;;;;16.49;86.76;101363.38;5071295;28;20039;-64
2021/07/14 02:24:22;;;;;;;31.23;15.32;;;;;;;16.47;86.51;101363.47;5073184;28;20025;-64
2021/07/14 02:26:48;;;;;;;34.35;14.60;;;;;;;16.49;86.25;101364.22;5071295;28;20413;-64
2021/07/14 02:29:13;;;;;;;34.42;16.00;;;;;;;16.50;86.17;101357.06;5072720;28;20028;-63
2021/07/14 02:31:38;;;;;;;32.95;14.68;;;;;;;16.50;86.19;101357.06;5071268;28;20055;-62
2021/07/14 02:34:08;;;;;;;32.35;15.25;;;;;;;16.51;86.05;101362.31;5069159;28;20380;-64
2021/07/14 02:36:36;;;;;;;27.83;15.38;;;;;;;16.53;85.56;101351.53;5061746;28;20028;-65
2021/07/14 02:39:05;;;;;;;28.10;15.38;;;;;;;16.51;85.63;101348.94;5072858;28;20047;-64
2021/07/14 02:41:55;;;;;;;31.42;15.68;;;;;;;16.50;85.31;101338.34;5070904;28;20396;-63
2021/07/14 02:44:24;;;;;;;27.00;15.02;;;;;;;16.51;85.19;101342.75;5072540;28;20028;-64
2021/07/14 02:46:53;;;;;;;30.50;15.23;;;;;;;16.49;85.70;101348.16;5071180;28;20036;-64
2021/07/14 02:49:24;;;;;;;28.20;15.00;;;;;;;16.47;85.91;101357.25;5072869;28;20025;-63
2021/07/14 02:51:50;;;;;;;28.52;15.98;;;;;;;16.48;85.44;101350.94;5072653;28;20025;-64
2021/07/14 02:54:22;;;;;;;28.98;14.82;;;;;;;16.48;85.70;101361.63;5056494;28;20029;-65
2021/07/14 02:56:58;;;;;;;27.63;14.18;;;;;;;16.50;85.76;101360.59;5053603;28;20028;-63
2021/07/14 02:59:26;;;;;;;28.45;15.10;;;;;;;16.51;85.66;101358.78;5052496;28;20032;-63
2021/07/14 03:01:55;;;;;;;24.83;14.25;;;;;;;16.47;85.92;101359.91;5052409;28;20021;-64
2021/07/14 03:04:21;;;;;;;25.10;14.02;;;;;;;16.47;85.76;101352.78;5052879;28;20388;-64
2021/07/14 03:06:47;;;;;;;24.20;12.65;;;;;;;16.49;85.53;101353.53;5052402;28;20017;-64
2021/07/14 03:09:12;;;;;;;22.52;13.40;;;;;;;16.49;85.69;101347.31;5053137;28;20028;-62
2021/07/14 03:11:43;;;;;;;20.70;11.75;;;;;;;16.53;84.92;101351.53;5052506;28;20028;-64
2021/07/14 03:14:15;;;;;;;20.25;12.60;;;;;;;16.52;85.54;101364.03;5053416;28;20036;-63
2021/07/14 03:16:41;;;;;;;20.10;11.77;;;;;;;16.54;85.21;101361.25;5052197;28;20067;-64
2021/07/14 03:19:07;;;;;;;18.90;11.93;;;;;;;16.48;85.09;101343.81;5053399;28;20538;-64
2021/07/14 03:21:34;;;;;;;19.17;12.32;;;;;;;16.47;85.51;101344.75;5052375;28;20044;-64
2021/07/14 03:24:08;;;;;;;18.35;11.75;;;;;;;16.49;85.65;101347.31;5053328;28;20075;-64
2021/07/14 03:26:36;;;;;;;21.25;12.65;;;;;;;16.48;85.46;101342.94;5052385;28;20029;-63
2021/07/14 03:29:03;;;;;;;16.85;11.40;;;;;;;16.52;85.40;101342.66;5053175;28;20515;-64
2021/07/14 03:31:29;;;;;;;21.73;13.45;;;;;;;16.51;84.88;101332.06;5052069;28;20033;-63
2021/07/14 03:33:55;;;;;;;24.60;13.90;;;;;;;16.48;85.24;101345.59;5053061;28;20037;-62
2021/07/14 03:36:21;;;;;;;24.20;13.70;;;;;;;16.47;85.39;101354.56;5052001;28;20094;-63
2021/07/14 03:38:46;;;;;;;20.23;12.68;;;;;;;16.46;85.45;101343.03;5051955;28;20116;-62
2021/07/14 03:41:13;;;;;;;23.17;13.07;;;;;;;16.43;85.58;101335.19;5053056;28;20377;-63
2021/07/14 03:43:38;;;;;;;22.02;13.13;;;;;;;16.44;85.60;101328.03;5071608;28;20162;-64
2021/07/14 03:46:06;;;;;;;25.17;13.73;;;;;;;16.42;85.36;101324.59;5070019;28;20111;-64
2021/07/14 03:48:32;;;;;;;25.63;14.65;;;;;;;16.44;85.69;101326.22;5072001;28;20028;-63
2021/07/14 03:51:00;;;;;;;26.88;14.43;;;;;;;16.43;85.54;101327.16;5070147;28;20065;-63
2021/07/14 03:53:26;;;;;;;25.48;14.70;;;;;;;16.38;85.99;101330.13;5072164;28;20017;-62
2021/07/14 03:55:52;;;;;;;26.08;15.20;;;;;;;16.40;86.16;101338.06;5071977;28;20028;-62
2021/07/14 03:58:18;;;;;;;21.45;13.23;;;;;;;16.42;85.72;101345.97;5072018;28;20025;-64
2021/07/14 04:00:47;;;;;;;26.02;13.75;;;;;;;16.43;85.21;101345.88;5071732;28;20543;-62
2021/07/14 04:03:12;;;;;;;20.98;14.13;;;;;;;16.41;85.82;101346.91;5071375;28;20037;-64
2021/07/14 04:05:42;;;;;;;25.80;14.00;;;;;;;16.43;85.89;101358.38;5070142;28;20036;-64
2021/07/14 04:08:08;;;;;;;25.13;14.02;;;;;;;16.47;85.66;101342.06;5072001;28;20388;-63
2021/07/14 04:10:33;;;;;;;23.65;14.93;;;;;;;16.48;85.24;101327.75;5071559;28;20056;-63
2021/07/14 04:12:58;;;;;;;22.48;13.60;;;;;;;16.45;85.77;101321.75;5070006;28;20037;-64
2021/07/14 04:15:24;;;;;;;20.15;13.57;;;;;;;16.47;85.56;101326.03;5071908;28;20021;-64
2021/07/14 04:17:49;;;;;;;21.70;13.35;;;;;;;16.48;85.55;101327.75;5074548;28;20056;-64
2021/07/14 04:20:14;;;;;;;25.92;13.38;;;;;;;16.48;85.43;101329.56;5075130;28;20028;-65
2021/07/14 04:22:41;;;;;;;26.48;14.40;;;;;;;16.49;85.60;101321.44;5073693;28;20028;-64
2021/07/14 04:25:07;;;;;;;25.60;14.85;;;;;;;16.51;85.63;101334.72;5075515;28;20021;-64
2021/07/14 04:27:33;;;;;;;25.80;14.13;;;;;;;16.51;85.58;101340.09;5073877;28;20021;-62
2021/07/14 04:29:58;;;;;;;23.75;14.88;;;;;;;16.45;85.46;101327.94;5075257;28;20376;-63
2021/07/14 04:32:24;;;;;;;26.20;16.33;;;;;;;16.42;86.05;101333.47;5074787;28;20055;-63
2021/07/14 04:34:49;;;;;;;26.33;14.43;;;;;;;16.37;85.86;101339.09;5072054;28;20058;-64
2021/07/14 04:37:14;;;;;;;27.42;15.48;;;;;;;16.40;86.16;101334.53;5070508;28;20094;-64
2021/07/14 04:39:40;;;;;;;26.55;14.60;;;;;;;16.43;85.74;101337.00;5075194;28;20055;-64
2021/07/14 04:42:05;;;;;;;26.42;13.70;;;;;;;16.46;85.59;101329.66;5074941;28;20030;-63
2021/07/14 04:44:33;;;;;;;26.27;13.68;;;;;;;16.49;85.50;101333.97;5061750;28;20025;-62
2021/07/14 04:46:59;;;;;;;22.70;13.25;;;;;;;16.53;84.58;101332.81;5055668;28;20448;-62
2021/07/14 04:49:24;;;;;;;24.30;14.13;;;;;;;16.53;84.48;101338.16;5055011;28;20057;-63
2021/07/14 04:51:50;;;;;;;24.30;13.77;;;;;;;16.53;84.44;101339.03;5058408;28;20024;-64
2021/07/14 04:54:15;;;;;;;25.85;14.40;;;;;;;16.53;84.60;101346.16;5071196;28;20104;-60
2021/07/14 04:56:41;;;;;;;24.88;16.05;;;;;;;16.52;84.82;101341.78;5069608;28;20498;-61
2021/07/14 04:59:07;;;;;;;24.70;14.70;;;;;;;16.50;84.87;101341.88;5072660;28;20031;-66
2021/07/14 05:01:32;;;;;;;27.38;15.25;;;;;;;16.54;84.64;101337.19;5075247;28;20469;-65
2021/07/14 05:03:58;;;;;;;27.95;15.77;;;;;;;16.53;84.37;101332.81;5074393;28;20031;-64
2021/07/14 05:06:23;;;;;;;28.73;15.93;;;;;;;16.48;85.01;101332.22;5073564;28;20078;-64
2021/07/14 05:08:48;;;;;;;30.00;15.55;;;;;;;16.44;85.13;101341.41;5072598;28;20536;-65
2021/07/14 05:11:14;;;;;;;27.55;15.38;;;;;;;16.47;84.54;101346.53;5069624;28;20044;-64
2021/07/14 05:13:40;;;;;;;27.38;16.70;;;;;;;16.46;84.97;101347.50;5054982;28;20452;-64
2021/07/14 05:16:08;;;;;;;25.90;14.48;;;;;;;16.49;85.37;101353.53;5055725;28;20468;-64
2021/07/14 05:18:34;;;;;;;29.95;15.38;;;;;;;16.50;84.88;101359.75;5055400;28;20021;-64
2021/07/14 05:21:00;;;;;;;28.73;15.38;;;;;;;16.43;84.78;101356.56;5054738;28;20075;-62
2021/07/14 05:23:25;;;;;;;26.45;14.32;;;;;;;16.40;84.96;101350.56;5054565;28;20025;-65
2021/07/14 05:25:51;;;;;;;30.45;16.05;;;;;;;16.38;84.97;101358.66;5057976;28;20115;-64
2021/07/14 05:28:16;;;;;;;26.00;14.65;;;;;;;16.40;85.08;101348.75;5073417;28;20060;-63
2021/07/14 05:30:42;;;;;;;28.77;14.07;;;;;;;16.43;84.80;101350.38;5074689;28;20025;-62
2021/07/14 05:33:07;;;;;;;28.20;14.50;;;;;;;16.43;85.09;101355.72;5074384;28;20021;-64
2021/07/14 05:35:33;;;;;;;29.10;15.05;;;;;;;16.42;85.02;101362.00;5072729;28;20067;-62
2021/07/14 05:37:58;;;;;;;28.05;13.73;;;;;;;16.44;85.02;101365.47;5072335;28;20024;-64
2021/07/14 05:40:23;;;;;;;28.48;13.90;;;;;;;16.42;85.33;101370.03;5073944;28;20056;-63
2021/07/14 05:42:50;;;;;;;25.15;15.20;;;;;;;16.41;84.72;101373.66;5074186;28;20056;-65
2021/07/14 05:45:15;;;;;;;27.50;14.70;;;;;;;16.40;85.04;101382.66;5074134;28;20032;-61
2021/07/14 05:47:41;;;;;;;30.38;15.55;;;;;;;16.36;84.91;101380.13;5068676;28;20024;-63
2021/07/14 05:50:07;;;;;;;33.60;16.00;;;;;;;16.36;85.27;101390.84;5052301;28;20048;-65
2021/07/14 05:52:33;;;;;;;27.80;15.95;;;;;;;16.38;84.94;101393.41;5064564;28;20021;-65
2021/07/14 05:54:59;;;;;;;33.95;16.45;;;;;;;16.28;85.18;101398.47;5059398;28;20071;-63
2021/07/14 05:57:24;;;;;;;34.60;16.77;;;;;;;16.28;85.70;101401.13;5073895;28;20043;-63
2021/07/14 05:59:49;;;;;;;33.13;16.25;;;;;;;16.24;85.64;101396.94;5074055;28;20033;-63
2021/07/14 06:02:15;;;;;;;33.17;15.98;;;;;;;16.24;85.67;101404.06;5072346;28;20107;-64
2021/07/14 06:04:40;;;;;;;34.03;16.00;;;;;;;16.26;86.03;101399.50;5055750;28;20586;-65
2021/07/14 06:07:07;;;;;;;30.90;15.52;;;;;;;16.19;85.99;101399.03;5073608;28;20028;-64
2021/07/14 06:09:32;;;;;;;31.00;15.18;;;;;;;16.19;86.24;101399.88;5071162;28;20094;-62
2021/07/14 06:11:58;;;;;;;26.23;14.30;;;;;;;16.22;85.92;101404.16;5072686;28;20119;-61
2021/07/14 06:14:23;;;;;;;26.77;13.45;;;;;;;16.22;85.74;101402.34;5068909;28;20024;-61
2021/07/14 06:16:48;;;;;;;22.15;13.30;;;;;;;16.22;85.44;101401.50;5061644;28;20033;-62
2021/07/14 06:19:14;;;;;;;22.30;13.15;;;;;;;16.28;85.25;101408.28;5071018;28;20028;-61
2021/07/14 06:21:39;;;;;;;24.35;13.68;;;;;;;16.28;85.48;101401.13;5070952;28;20017;-64
2021/07/14 06:24:05;;;;;;;22.45;13.18;;;;;;;16.32;85.33;101402.66;5056063;28;20033;-65
2021/07/14 06:26:30;;;;;;;22.42;12.30;;;;;;;16.33;85.27;101396.38;5072345;28;20417;-63
2021/07/14 06:28:55;;;;;;;23.75;12.77;;;;;;;16.37;84.88;101408.59;5072896;28;20024;-62
2021/07/14 06:31:23;;;;;;;19.80;12.48;;;;;;;16.41;84.40;101403.94;5073030;28;20020;-62
2021/07/14 06:33:48;;;;;;;22.58;11.85;;;;;;;16.42;84.71;101411.00;5072620;28;20043;-60
2021/07/14 06:36:13;;;;;;;22.75;13.10;;;;;;;16.44;85.04;101406.41;5072411;28;20460;-61
2021/07/14 06:38:39;;;;;;;23.10;12.93;;;;;;;16.43;84.36;101411.84;5072171;28;20092;-66
2021/07/14 06:41:04;;;;;;;21.27;13.52;;;;;;;16.43;84.55;101410.03;5073053;28;20020;-61
2021/07/14 06:43:42;;;;;;;22.83;13.48;;;;;;;16.43;84.44;101407.34;5071595;28;20448;-62
2021/07/14 06:46:09;;;;;;;24.65;12.85;;;;;;;16.45;84.69;101401.94;5070822;28;20029;-61
2021/07/14 06:48:35;;;;;;;21.98;13.40;;;;;;;16.43;84.80;101401.16;5067771;28;20024;-63
2021/07/14 06:51:01;;;;;;;23.13;13.68;;;;;;;16.43;84.53;101410.03;5065090;28;20036;-62
2021/07/14 06:53:26;;;;;;;22.95;13.07;;;;;;;16.43;84.42;101404.69;5070257;28;20042;-64
2021/07/14 06:55:52;;;;;;;25.02;12.25;;;;;;;16.44;83.88;101400.22;5072729;28;20452;-65
2021/07/14 06:58:17;;;;;;;21.42;12.02;;;;;;;16.54;83.69;101412.91;5071428;28;20087;-64
2021/07/14 07:00:43;;;;;;;21.52;11.65;;;;;;;16.53;83.62;101426.38;5059953;28;20048;-62
2021/07/14 07:03:08;;;;;;;24.40;12.65;;;;;;;16.49;83.58;101416.81;5060319;28;20101;-61
2021/07/14 07:05:33;;;;;;;23.33;12.27;;;;;;;16.46;84.28;101414.31;5058274;28;20064;-62
2021/07/14 07:07:59;;;;;;;22.73;13.55;;;;;;;16.46;84.67;101412.53;5064068;28;20021;-61
2021/07/14 07:10:24;;;;;;;21.42;11.77;;;;;;;16.51;84.07;101425.63;5061990;28;20112;-65
2021/07/14 07:12:49;;;;;;;23.75;13.38;;;;;;;16.52;84.10;101416.63;5065082;28;20029;-63
2021/07/14 07:15:18;;;;;;;25.60;13.23;;;;;;;16.50;83.63;101419.41;5060328;28;20028;-62
2021/07/14 07:17:43;;;;;;;25.27;13.75;;;;;;;16.57;83.23;101416.34;5068223;28;20032;-61
2021/07/14 07:20:10;;;;;;;25.35;14.25;;;;;;;16.58;82.81;101426.97;5055816;28;20029;-61
2021/07/14 07:22:35;;;;;;;26.92;13.88;;;;;;;16.63;82.31;101408.81;5053875;28;20035;-62
2021/07/14 07:25:02;;;;;;;29.55;14.05;;;;;;;16.73;82.34;101411.78;5063032;28;20468;-64
2021/07/14 07:27:33;;;;;;;23.95;12.73;;;;;;;16.88;81.32;101416.19;5070841;28;20115;-63
2021/07/14 07:29:58;;;;;;;22.52;12.57;;;;;;;17.06;80.62;101408.00;5053916;28;20031;-64
2021/07/14 07:32:23;;;;;;;22.55;11.70;;;;;;;17.14;80.57;101403.00;5054130;28;20115;-63
2021/07/14 07:34:49;;;;;;;22.85;11.30;;;;;;;17.15;79.92;101404.75;5052057;28;20481;-62
2021/07/14 07:37:14;;;;;;;21.45;11.90;;;;;;;17.02;80.52;101401.09;5062701;28;20042;-62
2021/07/14 07:39:41;;;;;;;25.38;12.23;;;;;;;16.99;80.26;101399.47;5064272;28;20033;-62
2021/07/14 07:42:07;;;;;;;21.60;11.40;;;;;;;16.95;80.32;101395.28;5058759;28;20025;-62
2021/07/14 07:44:32;;;;;;;17.90;11.48;;;;;;;16.93;80.35;101404.38;5072447;28;20534;-61
2021/07/14 07:46:57;;;;;;;17.60;11.18;;;;;;;16.88;80.64;101392.13;5069880;28;20116;-62
2021/07/14 07:49:23;;;;;;;18.83;11.13;;;;;;;16.87;80.50;101395.75;5067276;28;20014;-61
2021/07/14 07:51:48;;;;;;;16.40;10.00;;;;;;;16.89;80.90;101382.25;5075118;28;20522;-61
2021/07/14 07:54:14;;;;;;;20.00;10.68;;;;;;;16.91;81.19;101399.13;5073473;28;20056;-62
2021/07/14 07:56:39;;;;;;;19.05;11.20;;;;;;;16.92;81.21;101391.94;5073659;28;20488;-63
2021/07/14 07:59:05;;;;;;;18.67;10.88;;;;;;;16.96;81.13;101399.69;5076240;28;20031;-64
2021/07/14 08:01:31;;;;;;;20.55;10.52;;;;;;;17.02;80.89;101399.31;5074757;28;20024;-63
2021/07/14 08:03:56;;;;;;;18.08;9.95;;;;;;;17.04;80.41;101401.88;5076182;28;20033;-62
2021/07/14 08:06:22;;;;;;;19.75;10.13;;;;;;;17.17;80.25;101402.84;5073616;28;20025;-61
2021/07/14 08:08:47;;;;;;;19.85;11.20;;;;;;;17.21;80.01;101395.44;5073389;28;20479;-62
2021/07/14 08:11:12;;;;;;;18.52;10.27;;;;;;;17.29;79.67;101394.94;5075792;28;20040;-61
2021/07/14 08:13:38;;;;;;;17.35;9.60;;;;;;;17.32;79.75;101405.47;5075750;28;20482;-61
2021/07/14 08:16:03;;;;;;;15.65;8.98;;;;;;;17.53;79.28;101405.88;5073820;28;20108;-61
2021/07/14 08:18:29;;;;;;;18.67;9.15;;;;;;;17.76;78.15;101404.41;5072975;28;20089;-61
2021/07/14 08:20:56;;;;;;;17.80;9.00;;;;;;;17.80;77.85;101405.03;5075467;28;20222;-61
2021/07/14 08:23:21;;;;;;;16.33;8.55;;;;;;;17.84;77.95;101401.22;5075241;28;20024;-61
2021/07/14 08:25:48;;;;;;;17.02;8.70;;;;;;;17.89;78.38;101408.91;5075665;28;20075;-61
2021/07/14 08:28:13;;;;;;;15.52;8.77;;;;;;;17.92;77.51;101406.06;5073289;28;20032;-61
2021/07/14 08:30:39;;;;;;;15.02;8.57;;;;;;;17.76;78.22;101407.06;5074139;28;20025;-61
2021/07/14 08:33:04;;;;;;;14.88;7.88;;;;;;;17.86;78.22;101404.63;5075147;28;20460;-61
2021/07/14 08:35:30;;;;;;;14.18;8.00;;;;;;;17.96;77.51;101397.72;5075326;28;20020;-59
2021/07/14 08:37:55;;;;;;;14.85;8.00;;;;;;;18.11;77.32;101398.50;5073182;28;20459;-61
2021/07/14 08:40:21;;;;;;;15.07;7.82;;;;;;;18.04;77.24;101407.91;5073437;28;20028;-59
2021/07/14 08:42:50;;;;;;;12.88;8.30;;;;;;;17.90;78.16;101400.78;5075103;28;20388;-60
2021/07/14 08:45:20;;;;;;;16.70;8.18;;;;;;;17.75;78.74;101405.34;5075008;28;20037;-60
2021/07/14 08:47:46;;;;;;;13.52;7.63;;;;;;;17.64;78.91;101402.53;5073183;28;20059;-60
2021/07/14 08:50:13;;;;;;;11.15;7.20;;;;;;;17.62;79.29;101399.06;5072640;28;20032;-60
2021/07/14 08:52:42;;;;;;;12.13;7.45;;;;;;;17.71;78.79;101411.00;5074612;28;20104;-60
2021/07/14 08:55:10;;;;;;;11.75;7.10;;;;;;;17.58;79.41;101403.75;5074877;28;20043;-60
2021/07/14 08:57:36;;;;;;;11.40;6.50;;;;;;;17.55;79.45;101412.00;5074610;28;20115;-60
2021/07/14 09:00:02;;;;;;;11.68;6.68;;;;;;;17.63;79.07;101419.53;5071310;28;20078;-60
2021/07/14 09:02:28;;;;;;;13.15;6.90;;;;;;;17.71;78.86;101402.97;5072129;28;20024;-62
2021/07/14 09:04:53;;;;;;;13.07;6.75;;;;;;;17.80;78.73;101407.72;5054516;28;20025;-60
2021/07/14 09:07:18;;;;;;;13.05;7.05;;;;;;;17.91;78.48;101404.34;5054539;28;20056;-60
2021/07/14 09:09:44;;;;;;;11.02;6.45;;;;;;;17.84;78.33;101404.72;5055166;28;20037;-61
2021/07/14 09:12:11;;;;;;;9.82;5.57;;;;;;;17.76;78.46;101404.41;5055601;28;20033;-60
2021/07/14 09:14:39;;;;;;;10.90;6.18;;;;;;;17.74;78.43;101406.31;5054290;28;20070;-60
2021/07/14 09:17:16;;;;;;;9.35;5.57;;;;;;;17.82;78.38;101411.16;5054389;28;20519;-60
2021/07/14 09:19:41;;;;;;;13.40;6.72;;;;;;;17.70;78.78;101412.84;5055523;28;20111;-60
2021/07/14 09:22:17;;;;;;;11.20;6.50;;;;;;;17.70;79.14;101407.47;5055559;28;20029;-60
2021/07/14 09:24:43;;;;;;;10.25;6.20;;;;;;;17.66;79.06;101408.63;5053898;28;20033;-60
2021/07/14 09:27:17;;;;;;;11.23;6.95;;;;;;;17.62;79.28;101407.09;5054333;28;20028;-60
2021/07/14 09:30:21;;;;;;;12.18;7.22;;;;;;;17.66;78.92;101401.47;5054227;28;20067;-60
2021/07/14 09:32:52;;;;;;;12.80;7.60;;;;;;;17.62;79.19;101399.94;5055515;28;20045;-60
2021/07/14 09:35:45;;;;;;;11.98;7.53;;;;;;;17.63;79.07;101404.31;5054195;28;20025;-63
2021/07/14 09:38:16;;;;;;;16.65;8.20;;;;;;;17.70;78.65;101402.13;5054138;28;20104;-60
2021/07/14 09:40:45;;;;;;;13.43;8.10;;;;;;;17.77;78.75;101400.72;5054439;28;20021;-60
2021/07/14 09:43:25;;;;;;;13.73;7.82;;;;;;;17.83;78.80;101400.34;5054782;28;20029;-60
2021/07/14 09:45:53;;;;;;;11.80;7.22;;;;;;;17.85;78.35;101406.47;5053962;28;20021;-62
2021/07/14 09:48:22;;;;;;;14.40;7.63;;;;;;;17.52;79.66;101405.03;5054028;28;20025;-60
2021/07/14 09:50:50;;;;;;;13.40;8.02;;;;;;;17.56;79.38;101405.72;5053921;28;20036;-61
2021/07/14 09:53:21;;;;;;;13.68;7.82;;;;;;;17.59;79.45;101410.00;5056004;28;20037;-61
2021/07/14 09:55:49;;;;;;;14.13;7.68;;;;;;;17.58;79.50;101400.25;5053615;28;20079;-61
2021/07/14 09:58:20;;;;;;;13.40;8.48;;;;;;;17.66;79.21;101401.47;5053671;28;20024;-60
2021/07/14 10:00:49;;;;;;;13.18;8.05;;;;;;;17.59;79.13;101402.81;5053681;28;20025;-60
2021/07/14 10:03:22;;;;;;;12.63;7.97;;;;;;;17.49;79.42;101402.56;5061184;28;20028;-62
2021/07/14 10:05:48;;;;;;;13.93;8.80;;;;;;;17.58;79.49;101408.28;5073612;28;20078;-61
2021/07/14 10:08:19;;;;;;;12.65;8.00;;;;;;;17.78;78.74;101398.94;5073558;28;20035;-61
2021/07/14 10:10:47;;;;;;;14.55;7.13;;;;;;;18.02;77.61;101405.34;5072893;28;20037;-61
2021/07/14 10:13:12;;;;;;;17.02;8.52;;;;;;;18.01;77.38;101405.47;5069150;28;20223;-59
2021/07/14 10:15:38;;;;;;;18.83;9.00;;;;;;;17.93;77.97;101397.03;5053390;28;20133;-61
2021/07/14 10:18:08;;;;;;;14.88;8.98;;;;;;;18.00;77.84;101403.75;5053245;28;20029;-62
2021/07/14 10:20:37;;;;;;;15.93;9.65;;;;;;;17.92;78.15;101412.25;5053426;28;20135;-59
2021/07/14 10:23:05;;;;;;;17.48;8.55;;;;;;;17.99;78.02;101413.59;5052937;28;20027;-60
2021/07/14 10:25:32;;;;;;;11.70;7.43;;;;;;;18.09;77.24;101415.66;5054642;28;20128;-62
2021/07/14 10:28:00;;;;;;;18.23;8.30;;;;;;;18.05;77.38;101422.19;5052861;28;20025;-62
2021/07/14 10:30:26;;;;;;;13.38;7.78;;;;;;;17.96;77.78;101429.03;5052882;28;20032;-61
2021/07/14 10:32:52;;;;;;;15.30;7.70;;;;;;;17.91;77.71;101431.97;5053214;28;20457;-62
2021/07/14 10:35:21;;;;;;;13.77;8.27;;;;;;;17.91;77.84;101441.84;5054897;28;20057;-61
2021/07/14 10:38:16;;;;;;;12.38;7.95;;;;;;;18.23;77.61;101437.03;5052774;28;20033;-62
2021/07/14 10:40:44;;;;;;;14.30;7.13;;;;;;;18.70;75.30;101436.56;5051551;28;20033;-62
2021/07/14 10:43:16;;;;;;;10.90;6.43;;;;;;;18.90;74.82;101424.44;5052734;28;20029;-63
2021/07/14 10:45:44;;;;;;;13.32;6.28;;;;;;;19.09;73.43;101435.59;5061904;28;20396;-61
2021/07/14 10:48:10;;;;;;;11.13;6.00;;;;;;;19.07;73.80;101432.16;5072624;28;20086;-61
2021/07/14 10:50:36;;;;;;;13.10;5.85;;;;;;;18.93;73.98;101434.97;5072796;28;20032;-61
2021/07/14 10:53:02;;;;;;;13.25;6.65;;;;;;;18.76;75.13;101433.41;5072519;28;20099;-62
2021/07/14 10:55:28;;;;;;;11.40;6.28;;;;;;;18.68;75.28;101433.97;5068783;28;20029;-63
2021/07/14 10:57:54;;;;;;;12.65;6.78;;;;;;;18.72;75.42;101426.56;5041963;28;20396;-62
2021/07/14 11:00:21;;;;;;;12.32;6.97;;;;;;;18.58;75.69;101427.53;5052409;28;20029;-61
2021/07/14 11:02:49;;;;;;;10.05;7.05;;;;;;;18.58;76.37;101425.72;5052527;28;20488;-62
2021/07/14 11:05:16;;;;;;;11.60;6.47;;;;;;;18.45;76.24;101411.41;5053358;28;20473;-61
2021/07/14 11:07:46;;;;;;;10.65;7.13;;;;;;;18.39;77.09;101420.75;5053224;28;20358;-62
2021/07/14 11:10:27;;;;;;;10.23;6.82;;;;;;;18.42;76.89;101411.66;5052115;28;20072;-62
2021/07/14 11:12:52;;;;;;;10.80;6.85;;;;;;;18.55;76.90;101433.09;5051694;28;20029;-62
2021/07/14 11:15:29;;;;;;;11.30;7.55;;;;;;;18.46;77.14;101423.88;5052489;28;20103;-63
2021/07/14 11:17:55;;;;;;;10.57;7.13;;;;;;;18.53;76.79;101425.19;5054256;28;20071;-62
2021/07/14 11:20:21;;;;;;;13.52;7.97;;;;;;;18.47;77.09;101421.06;5051899;28;20028;-62
2021/07/14 11:22:49;;;;;;;13.98;7.93;;;;;;;18.66;76.69;101425.19;5052059;28;20028;-62